sensor_id;sensor_type;location;lat;lon;timestamp;P1;durP1;ratioP1;P2;durP2;ratioP2
7231;SDS011;3657;49.630;11.018;2022-12-24T00:00:27;4.03;;;3.57;;
7231;SDS011;3657;49.630;11.018;2022-12-24T00:02:53;3.97;;;3.87;;
7231;SDS011;3657;49.630;11.018;2022-12-24T00:05:20;3.93;;;3.63;;
7231;SDS011;3657;49.630;11.018;2022-12-24T00:07:47;4.93;;;3.73;;
7231;SDS011;3657;49.630;11.018;2022-12-24T00:10:15;4.87;;;4.63;;
7231;SDS011;3657;49.630;11.018;2022-12-24T00:12:42;4.23;;;4.00;;
7231;SDS011;3657;49.630;11.018;2022-12-24T00:15:09;4.30;;;4.10;;
7231;SDS011;3657;49.630;11.018;2022-12-24T00:17:36;3.80;;;3.70;;
7231;SDS011;3657;49.630;11.018;2022-12-24T00:20:03;4.53;;;4.30;;
7231;SDS011;3657;49.630;11.018;2022-12-24T00:22:30;4.50;;;4.17;;
7231;SDS011;3657;49.630;11.018;2022-12-24T00:24:57;4.00;;;3.77;;
7231;SDS011;3657;49.630;11.018;2022-12-24T00:27:25;4.10;;;3.90;;
7231;SDS011;3657;49.630;11.018;2022-12-24T00:29:51;4.20;;;3.97;;
7231;SDS011;3657;49.630;11.018;2022-12-24T00:32:18;4.53;;;3.70;;
7231;SDS011;3657;49.630;11.018;2022-12-24T00:34:45;4.80;;;4.40;;
7231;SDS011;3657;49.630;11.018;2022-12-24T00:37:11;4.70;;;3.90;;
7231;SDS011;3657;49.630;11.018;2022-12-24T00:39:38;4.20;;;3.87;;
7231;SDS011;3657;49.630;11.018;2022-12-24T00:42:05;4.43;;;4.13;;
7231;SDS011;3657;49.630;11.018;2022-12-24T00:44:33;4.60;;;4.30;;
7231;SDS011;3657;49.630;11.018;2022-12-24T00:46:59;7.53;;;6.77;;
7231;SDS011;3657;49.630;11.018;2022-12-24T00:49:26;10.03;;;5.10;;
7231;SDS011;3657;49.630;11.018;2022-12-24T00:51:53;6.13;;;5.53;;
7231;SDS011;3657;49.630;11.018;2022-12-24T00:54:19;4.87;;;4.30;;
7231;SDS011;3657;49.630;11.018;2022-12-24T00:56:46;7.67;;;5.20;;
7231;SDS011;3657;49.630;11.018;2022-12-24T00:59:13;4.80;;;4.50;;
7231;SDS011;3657;49.630;11.018;2022-12-24T01:01:41;4.77;;;4.37;;
7231;SDS011;3657;49.630;11.018;2022-12-24T01:04:07;5.30;;;5.00;;
7231;SDS011;3657;49.630;11.018;2022-12-24T01:06:51;7.70;;;7.00;;
7231;SDS011;3657;49.630;11.018;2022-12-24T01:09:18;5.97;;;5.60;;
7231;SDS011;3657;49.630;11.018;2022-12-24T01:11:45;5.83;;;5.40;;
7231;SDS011;3657;49.630;11.018;2022-12-24T01:14:11;5.93;;;5.57;;
7231;SDS011;3657;49.630;11.018;2022-12-24T01:16:38;5.63;;;5.07;;
7231;SDS011;3657;49.630;11.018;2022-12-24T01:19:06;5.10;;;4.70;;
7231;SDS011;3657;49.630;11.018;2022-12-24T01:21:33;5.10;;;4.70;;
7231;SDS011;3657;49.630;11.018;2022-12-24T01:23:59;5.20;;;4.70;;
7231;SDS011;3657;49.630;11.018;2022-12-24T01:26:26;5.33;;;4.90;;
7231;SDS011;3657;49.630;11.018;2022-12-24T01:28:53;5.03;;;4.80;;
7231;SDS011;3657;49.630;11.018;2022-12-24T01:31:21;4.87;;;4.57;;
7231;SDS011;3657;49.630;11.018;2022-12-24T01:33:48;5.60;;;4.90;;
7231;SDS011;3657;49.630;11.018;2022-12-24T01:36:16;5.60;;;4.83;;
7231;SDS011;3657;49.630;11.018;2022-12-24T01:38:43;5.63;;;5.13;;
7231;SDS011;3657;49.630;11.018;2022-12-24T01:41:13;7.93;;;5.33;;
7231;SDS011;3657;49.630;11.018;2022-12-24T01:46:44;6.07;;;5.63;;
7231;SDS011;3657;49.630;11.018;2022-12-24T01:49:12;5.93;;;5.53;;
7231;SDS011;3657;49.630;11.018;2022-12-24T01:51:42;5.20;;;4.80;;
7231;SDS011;3657;49.630;11.018;2022-12-24T01:54:12;5.53;;;5.03;;
7231;SDS011;3657;49.630;11.018;2022-12-24T01:56:42;5.77;;;5.20;;
7231;SDS011;3657;49.630;11.018;2022-12-24T01:59:14;5.63;;;5.23;;
7231;SDS011;3657;49.630;11.018;2022-12-24T02:01:42;4.80;;;4.50;;
7231;SDS011;3657;49.630;11.018;2022-12-24T02:04:11;4.90;;;4.60;;
7231;SDS011;3657;49.630;11.018;2022-12-24T02:06:44;5.47;;;5.07;;
7231;SDS011;3657;49.630;11.018;2022-12-24T02:09:11;4.83;;;4.43;;
7231;SDS011;3657;49.630;11.018;2022-12-24T02:11:37;6.80;;;4.87;;
7231;SDS011;3657;49.630;11.018;2022-12-24T02:14:07;5.90;;;4.77;;
7231;SDS011;3657;49.630;11.018;2022-12-24T02:16:36;5.83;;;5.23;;
7231;SDS011;3657;49.630;11.018;2022-12-24T02:19:13;6.07;;;5.60;;
7231;SDS011;3657;49.630;11.018;2022-12-24T02:21:54;5.23;;;4.93;;
7231;SDS011;3657;49.630;11.018;2022-12-24T02:27:36;5.57;;;5.10;;
7231;SDS011;3657;49.630;11.018;2022-12-24T02:30:15;7.70;;;6.00;;
7231;SDS011;3657;49.630;11.018;2022-12-24T02:32:52;6.53;;;6.03;;
7231;SDS011;3657;49.630;11.018;2022-12-24T02:35:32;5.53;;;5.03;;
7231;SDS011;3657;49.630;11.018;2022-12-24T02:38:03;5.63;;;5.23;;
7231;SDS011;3657;49.630;11.018;2022-12-24T02:40:37;5.20;;;4.90;;
7231;SDS011;3657;49.630;11.018;2022-12-24T02:43:08;5.97;;;5.67;;
7231;SDS011;3657;49.630;11.018;2022-12-24T02:45:39;6.43;;;5.80;;
7231;SDS011;3657;49.630;11.018;2022-12-24T02:48:08;5.83;;;5.33;;
7231;SDS011;3657;49.630;11.018;2022-12-24T02:50:38;7.27;;;5.63;;
7231;SDS011;3657;49.630;11.018;2022-12-24T02:53:05;6.83;;;5.30;;
7231;SDS011;3657;49.630;11.018;2022-12-24T02:55:38;6.30;;;5.90;;
7231;SDS011;3657;49.630;11.018;2022-12-24T02:58:21;5.93;;;5.43;;
7231;SDS011;3657;49.630;11.018;2022-12-24T03:01:02;5.90;;;5.40;;
7231;SDS011;3657;49.630;11.018;2022-12-24T03:03:45;5.37;;;5.03;;
7231;SDS011;3657;49.630;11.018;2022-12-24T03:06:20;5.67;;;5.10;;
7231;SDS011;3657;49.630;11.018;2022-12-24T03:08:58;5.57;;;5.03;;
7231;SDS011;3657;49.630;11.018;2022-12-24T03:11:28;6.03;;;5.43;;
7231;SDS011;3657;49.630;11.018;2022-12-24T03:13:55;5.47;;;4.97;;
7231;SDS011;3657;49.630;11.018;2022-12-24T03:16:26;6.80;;;5.30;;
7231;SDS011;3657;49.630;11.018;2022-12-24T03:18:53;5.20;;;4.80;;
7231;SDS011;3657;49.630;11.018;2022-12-24T03:21:22;5.20;;;4.80;;
7231;SDS011;3657;49.630;11.018;2022-12-24T03:23:52;5.40;;;5.00;;
7231;SDS011;3657;49.630;11.018;2022-12-24T03:26:20;5.57;;;5.07;;
7231;SDS011;3657;49.630;11.018;2022-12-24T03:28:47;5.43;;;4.87;;
7231;SDS011;3657;49.630;11.018;2022-12-24T03:31:14;5.37;;;4.97;;
7231;SDS011;3657;49.630;11.018;2022-12-24T03:33:44;5.53;;;5.00;;
7231;SDS011;3657;49.630;11.018;2022-12-24T03:36:11;5.60;;;5.10;;
7231;SDS011;3657;49.630;11.018;2022-12-24T03:38:37;4.93;;;4.63;;
7231;SDS011;3657;49.630;11.018;2022-12-24T03:41:04;4.73;;;4.37;;
7231;SDS011;3657;49.630;11.018;2022-12-24T03:43:32;4.83;;;4.43;;
7231;SDS011;3657;49.630;11.018;2022-12-24T03:46:03;5.33;;;5.03;;
7231;SDS011;3657;49.630;11.018;2022-12-24T03:48:31;6.20;;;5.77;;
7231;SDS011;3657;49.630;11.018;2022-12-24T03:51:00;5.80;;;5.37;;
7231;SDS011;3657;49.630;11.018;2022-12-24T03:53:27;5.27;;;4.70;;
7231;SDS011;3657;49.630;11.018;2022-12-24T03:55:54;5.27;;;5.00;;
7231;SDS011;3657;49.630;11.018;2022-12-24T03:58:20;8.93;;;4.67;;
7231;SDS011;3657;49.630;11.018;2022-12-24T04:00:47;4.87;;;4.37;;
7231;SDS011;3657;49.630;11.018;2022-12-24T04:03:14;5.97;;;4.93;;
7231;SDS011;3657;49.630;11.018;2022-12-24T04:05:40;5.93;;;5.43;;
7231;SDS011;3657;49.630;11.018;2022-12-24T04:08:08;5.80;;;5.30;;
7231;SDS011;3657;49.630;11.018;2022-12-24T04:10:35;5.47;;;5.03;;
7231;SDS011;3657;49.630;11.018;2022-12-24T04:13:02;5.13;;;4.80;;
7231;SDS011;3657;49.630;11.018;2022-12-24T04:15:28;5.10;;;4.70;;
7231;SDS011;3657;49.630;11.018;2022-12-24T04:17:55;7.60;;;5.77;;
7231;SDS011;3657;49.630;11.018;2022-12-24T04:20:21;6.33;;;5.90;;
7231;SDS011;3657;49.630;11.018;2022-12-24T04:22:48;5.67;;;5.27;;
7231;SDS011;3657;49.630;11.018;2022-12-24T04:25:16;5.60;;;5.07;;
7231;SDS011;3657;49.630;11.018;2022-12-24T04:27:43;6.30;;;5.40;;
7231;SDS011;3657;49.630;11.018;2022-12-24T04:30:10;5.07;;;4.40;;
7231;SDS011;3657;49.630;11.018;2022-12-24T04:32:37;5.47;;;5.00;;
7231;SDS011;3657;49.630;11.018;2022-12-24T04:35:03;6.10;;;5.63;;
7231;SDS011;3657;49.630;11.018;2022-12-24T04:37:32;5.20;;;4.90;;
7231;SDS011;3657;49.630;11.018;2022-12-24T04:39:59;5.43;;;4.97;;
7231;SDS011;3657;49.630;11.018;2022-12-24T04:42:27;6.57;;;5.13;;
7231;SDS011;3657;49.630;11.018;2022-12-24T04:44:53;6.13;;;5.73;;
7231;SDS011;3657;49.630;11.018;2022-12-24T04:47:20;5.30;;;4.90;;
7231;SDS011;3657;49.630;11.018;2022-12-24T04:49:47;5.30;;;4.90;;
7231;SDS011;3657;49.630;11.018;2022-12-24T04:52:14;5.50;;;5.07;;
7231;SDS011;3657;49.630;11.018;2022-12-24T04:54:41;5.90;;;5.50;;
7231;SDS011;3657;49.630;11.018;2022-12-24T04:57:07;5.97;;;5.47;;
7231;SDS011;3657;49.630;11.018;2022-12-24T04:59:35;4.60;;;4.30;;
7231;SDS011;3657;49.630;11.018;2022-12-24T05:02:02;5.93;;;5.47;;
7231;SDS011;3657;49.630;11.018;2022-12-24T05:04:29;8.20;;;4.90;;
7231;SDS011;3657;49.630;11.018;2022-12-24T05:06:55;6.77;;;4.93;;
7231;SDS011;3657;49.630;11.018;2022-12-24T05:09:22;6.90;;;5.50;;
7231;SDS011;3657;49.630;11.018;2022-12-24T05:11:49;5.17;;;4.67;;
7231;SDS011;3657;49.630;11.018;2022-12-24T05:14:16;5.23;;;4.63;;
7231;SDS011;3657;49.630;11.018;2022-12-24T05:16:44;5.30;;;4.73;;
7231;SDS011;3657;49.630;11.018;2022-12-24T05:19:10;5.07;;;4.70;;
7231;SDS011;3657;49.630;11.018;2022-12-24T05:21:37;5.60;;;5.20;;
7231;SDS011;3657;49.630;11.018;2022-12-24T05:24:04;6.43;;;5.20;;
7231;SDS011;3657;49.630;11.018;2022-12-24T05:26:49;5.33;;;4.93;;
7231;SDS011;3657;49.630;11.018;2022-12-24T05:29:18;5.63;;;5.10;;
7231;SDS011;3657;49.630;11.018;2022-12-24T05:31:46;6.93;;;5.00;;
7231;SDS011;3657;49.630;11.018;2022-12-24T05:34:14;5.40;;;5.00;;
7231;SDS011;3657;49.630;11.018;2022-12-24T05:36:41;5.50;;;4.83;;
7231;SDS011;3657;49.630;11.018;2022-12-24T05:39:09;6.10;;;5.27;;
7231;SDS011;3657;49.630;11.018;2022-12-24T05:41:39;4.43;;;4.10;;
7231;SDS011;3657;49.630;11.018;2022-12-24T05:44:06;4.93;;;4.50;;
7231;SDS011;3657;49.630;11.018;2022-12-24T05:46:32;5.10;;;4.77;;
7231;SDS011;3657;49.630;11.018;2022-12-24T05:49:00;5.23;;;4.83;;
7231;SDS011;3657;49.630;11.018;2022-12-24T05:51:27;5.53;;;5.00;;
7231;SDS011;3657;49.630;11.018;2022-12-24T05:53:54;4.93;;;4.53;;
7231;SDS011;3657;49.630;11.018;2022-12-24T05:56:21;5.07;;;4.77;;
7231;SDS011;3657;49.630;11.018;2022-12-24T05:58:49;5.70;;;4.87;;
7231;SDS011;3657;49.630;11.018;2022-12-24T06:01:17;4.57;;;4.27;;
7231;SDS011;3657;49.630;11.018;2022-12-24T06:03:44;5.97;;;5.00;;
7231;SDS011;3657;49.630;11.018;2022-12-24T06:06:15;5.23;;;4.83;;
7231;SDS011;3657;49.630;11.018;2022-12-24T06:08:44;7.43;;;5.20;;
7231;SDS011;3657;49.630;11.018;2022-12-24T06:11:12;7.97;;;5.63;;
7231;SDS011;3657;49.630;11.018;2022-12-24T06:13:41;4.37;;;4.17;;
7231;SDS011;3657;49.630;11.018;2022-12-24T06:16:08;4.77;;;4.50;;
7231;SDS011;3657;49.630;11.018;2022-12-24T06:18:36;5.40;;;4.97;;
7231;SDS011;3657;49.630;11.018;2022-12-24T06:21:03;5.40;;;4.97;;
7231;SDS011;3657;49.630;11.018;2022-12-24T06:23:34;4.90;;;4.60;;
7231;SDS011;3657;49.630;11.018;2022-12-24T06:26:03;5.37;;;5.00;;
7231;SDS011;3657;49.630;11.018;2022-12-24T06:28:31;4.80;;;4.47;;
7231;SDS011;3657;49.630;11.018;2022-12-24T06:31:01;5.00;;;4.73;;
7231;SDS011;3657;49.630;11.018;2022-12-24T06:33:29;4.90;;;4.50;;
7231;SDS011;3657;49.630;11.018;2022-12-24T06:35:56;5.63;;;5.07;;
7231;SDS011;3657;49.630;11.018;2022-12-24T06:38:23;4.73;;;4.33;;
7231;SDS011;3657;49.630;11.018;2022-12-24T06:40:51;4.87;;;4.47;;
7231;SDS011;3657;49.630;11.018;2022-12-24T06:43:19;5.10;;;4.70;;
7231;SDS011;3657;49.630;11.018;2022-12-24T06:45:46;7.03;;;4.93;;
7231;SDS011;3657;49.630;11.018;2022-12-24T06:48:13;5.93;;;5.17;;
7231;SDS011;3657;49.630;11.018;2022-12-24T06:50:40;5.07;;;4.67;;
7231;SDS011;3657;49.630;11.018;2022-12-24T06:53:07;5.33;;;5.00;;
7231;SDS011;3657;49.630;11.018;2022-12-24T06:55:34;6.03;;;5.07;;
7231;SDS011;3657;49.630;11.018;2022-12-24T06:58:03;4.77;;;4.33;;
7231;SDS011;3657;49.630;11.018;2022-12-24T07:00:30;4.70;;;4.50;;
7231;SDS011;3657;49.630;11.018;2022-12-24T07:02:56;6.47;;;5.00;;
7231;SDS011;3657;49.630;11.018;2022-12-24T07:05:23;6.50;;;4.47;;
7231;SDS011;3657;49.630;11.018;2022-12-24T07:07:50;4.90;;;4.63;;
7231;SDS011;3657;49.630;11.018;2022-12-24T07:10:17;4.77;;;4.47;;
7231;SDS011;3657;49.630;11.018;2022-12-24T07:12:45;5.07;;;4.77;;
7231;SDS011;3657;49.630;11.018;2022-12-24T07:15:14;5.67;;;5.27;;
7231;SDS011;3657;49.630;11.018;2022-12-24T07:17:41;5.63;;;5.07;;
7231;SDS011;3657;49.630;11.018;2022-12-24T07:20:09;7.20;;;4.73;;
7231;SDS011;3657;49.630;11.018;2022-12-24T07:22:38;4.87;;;4.57;;
7231;SDS011;3657;49.630;11.018;2022-12-24T07:25:05;8.33;;;5.30;;
7231;SDS011;3657;49.630;11.018;2022-12-24T07:27:32;6.50;;;5.50;;
7231;SDS011;3657;49.630;11.018;2022-12-24T07:29:59;7.13;;;5.00;;
7231;SDS011;3657;49.630;11.018;2022-12-24T07:32:27;5.13;;;4.73;;
7231;SDS011;3657;49.630;11.018;2022-12-24T07:34:53;5.87;;;5.10;;
7231;SDS011;3657;49.630;11.018;2022-12-24T07:37:20;5.87;;;5.37;;
7231;SDS011;3657;49.630;11.018;2022-12-24T07:39:47;6.67;;;5.10;;
7231;SDS011;3657;49.630;11.018;2022-12-24T07:42:13;8.27;;;5.87;;
7231;SDS011;3657;49.630;11.018;2022-12-24T07:44:40;7.33;;;4.73;;
7231;SDS011;3657;49.630;11.018;2022-12-24T07:47:07;8.30;;;5.90;;
7231;SDS011;3657;49.630;11.018;2022-12-24T07:49:35;8.33;;;5.67;;
7231;SDS011;3657;49.630;11.018;2022-12-24T07:52:02;10.93;;;7.33;;
7231;SDS011;3657;49.630;11.018;2022-12-24T07:54:28;9.87;;;9.03;;
7231;SDS011;3657;49.630;11.018;2022-12-24T07:56:55;7.43;;;6.83;;
7231;SDS011;3657;49.630;11.018;2022-12-24T07:59:22;10.83;;;9.70;;
7231;SDS011;3657;49.630;11.018;2022-12-24T08:01:49;13.77;;;12.33;;
7231;SDS011;3657;49.630;11.018;2022-12-24T08:04:15;9.27;;;8.47;;
7231;SDS011;3657;49.630;11.018;2022-12-24T08:06:43;10.20;;;9.17;;
7231;SDS011;3657;49.630;11.018;2022-12-24T08:09:10;8.83;;;7.87;;
7231;SDS011;3657;49.630;11.018;2022-12-24T08:11:38;8.53;;;7.27;;
7231;SDS011;3657;49.630;11.018;2022-12-24T08:14:04;11.80;;;8.10;;
7231;SDS011;3657;49.630;11.018;2022-12-24T08:16:31;10.00;;;8.07;;
7231;SDS011;3657;49.630;11.018;2022-12-24T08:18:58;18.13;;;7.93;;
7231;SDS011;3657;49.630;11.018;2022-12-24T08:21:24;8.20;;;7.70;;
7231;SDS011;3657;49.630;11.018;2022-12-24T08:23:52;9.73;;;7.90;;
7231;SDS011;3657;49.630;11.018;2022-12-24T08:26:19;8.63;;;7.90;;
7231;SDS011;3657;49.630;11.018;2022-12-24T08:28:46;12.40;;;7.43;;
7231;SDS011;3657;49.630;11.018;2022-12-24T08:31:12;9.93;;;7.50;;
7231;SDS011;3657;49.630;11.018;2022-12-24T08:33:39;8.00;;;7.30;;
7231;SDS011;3657;49.630;11.018;2022-12-24T08:36:07;12.27;;;8.13;;
7231;SDS011;3657;49.630;11.018;2022-12-24T08:38:34;8.87;;;7.60;;
7231;SDS011;3657;49.630;11.018;2022-12-24T08:41:02;7.57;;;7.07;;
7231;SDS011;3657;49.630;11.018;2022-12-24T08:43:29;10.73;;;7.00;;
7231;SDS011;3657;49.630;11.018;2022-12-24T08:46:00;9.07;;;7.30;;
7231;SDS011;3657;49.630;11.018;2022-12-24T08:48:27;11.70;;;8.13;;
7231;SDS011;3657;49.630;11.018;2022-12-24T08:50:53;10.13;;;7.07;;
7231;SDS011;3657;49.630;11.018;2022-12-24T08:53:20;8.80;;;7.17;;
7231;SDS011;3657;49.630;11.018;2022-12-24T08:55:47;11.30;;;7.87;;
7231;SDS011;3657;49.630;11.018;2022-12-24T08:58:15;10.63;;;7.80;;
7231;SDS011;3657;49.630;11.018;2022-12-24T09:00:41;10.83;;;8.07;;
7231;SDS011;3657;49.630;11.018;2022-12-24T09:03:10;8.23;;;7.43;;
7231;SDS011;3657;49.630;11.018;2022-12-24T09:05:39;15.13;;;7.67;;
7231;SDS011;3657;49.630;11.018;2022-12-24T09:08:06;8.60;;;7.83;;
7231;SDS011;3657;49.630;11.018;2022-12-24T09:10:33;9.97;;;8.00;;
7231;SDS011;3657;49.630;11.018;2022-12-24T09:12:59;12.17;;;8.07;;
7231;SDS011;3657;49.630;11.018;2022-12-24T09:15:27;13.87;;;8.50;;
7231;SDS011;3657;49.630;11.018;2022-12-24T09:17:54;8.60;;;7.23;;
7231;SDS011;3657;49.630;11.018;2022-12-24T09:20:21;9.37;;;8.37;;
7231;SDS011;3657;49.630;11.018;2022-12-24T09:22:48;8.20;;;7.47;;
7231;SDS011;3657;49.630;11.018;2022-12-24T09:25:14;16.43;;;8.83;;
7231;SDS011;3657;49.630;11.018;2022-12-24T09:27:41;8.50;;;7.67;;
7231;SDS011;3657;49.630;11.018;2022-12-24T09:30:08;12.67;;;8.93;;
7231;SDS011;3657;49.630;11.018;2022-12-24T09:32:37;11.50;;;8.63;;
7231;SDS011;3657;49.630;11.018;2022-12-24T09:35:04;9.33;;;8.10;;
7231;SDS011;3657;49.630;11.018;2022-12-24T09:37:31;10.07;;;9.03;;
7231;SDS011;3657;49.630;11.018;2022-12-24T09:39:58;16.20;;;10.30;;
7231;SDS011;3657;49.630;11.018;2022-12-24T09:42:27;14.13;;;9.10;;
7231;SDS011;3657;49.630;11.018;2022-12-24T09:45:07;9.03;;;8.30;;
7231;SDS011;3657;49.630;11.018;2022-12-24T09:47:42;14.90;;;9.37;;
7231;SDS011;3657;49.630;11.018;2022-12-24T09:50:19;12.10;;;7.93;;
7231;SDS011;3657;49.630;11.018;2022-12-24T09:52:51;9.50;;;8.53;;
7231;SDS011;3657;49.630;11.018;2022-12-24T09:55:19;13.43;;;8.43;;
7231;SDS011;3657;49.630;11.018;2022-12-24T09:57:50;13.87;;;8.30;;
7231;SDS011;3657;49.630;11.018;2022-12-24T10:00:20;9.40;;;7.97;;
7231;SDS011;3657;49.630;11.018;2022-12-24T10:02:50;8.90;;;8.00;;
7231;SDS011;3657;49.630;11.018;2022-12-24T10:05:20;11.37;;;8.03;;
7231;SDS011;3657;49.630;11.018;2022-12-24T10:07:55;13.70;;;8.63;;
7231;SDS011;3657;49.630;11.018;2022-12-24T10:10:30;16.13;;;8.90;;
7231;SDS011;3657;49.630;11.018;2022-12-24T10:13:05;14.40;;;8.53;;
7231;SDS011;3657;49.630;11.018;2022-12-24T10:15:43;13.37;;;7.60;;
7231;SDS011;3657;49.630;11.018;2022-12-24T10:18:19;8.00;;;7.30;;
7231;SDS011;3657;49.630;11.018;2022-12-24T10:20:53;8.47;;;7.17;;
7231;SDS011;3657;49.630;11.018;2022-12-24T10:23:27;9.67;;;7.37;;
7231;SDS011;3657;49.630;11.018;2022-12-24T10:26:02;11.57;;;7.73;;
7231;SDS011;3657;49.630;11.018;2022-12-24T10:28:37;11.17;;;7.60;;
7231;SDS011;3657;49.630;11.018;2022-12-24T10:31:09;7.27;;;6.57;;
7231;SDS011;3657;49.630;11.018;2022-12-24T10:33:39;9.97;;;7.07;;
7231;SDS011;3657;49.630;11.018;2022-12-24T10:36:09;7.83;;;7.20;;
7231;SDS011;3657;49.630;11.018;2022-12-24T10:38:42;17.40;;;7.93;;
7231;SDS011;3657;49.630;11.018;2022-12-24T10:41:09;8.87;;;7.10;;
7231;SDS011;3657;49.630;11.018;2022-12-24T10:43:36;8.43;;;6.70;;
7231;SDS011;3657;49.630;11.018;2022-12-24T10:46:07;10.40;;;6.77;;
7231;SDS011;3657;49.630;11.018;2022-12-24T10:48:44;7.17;;;6.20;;
7231;SDS011;3657;49.630;11.018;2022-12-24T10:51:18;13.43;;;7.40;;
7231;SDS011;3657;49.630;11.018;2022-12-24T10:53:48;9.40;;;6.70;;
7231;SDS011;3657;49.630;11.018;2022-12-24T10:56:19;9.47;;;7.67;;
7231;SDS011;3657;49.630;11.018;2022-12-24T10:58:49;6.63;;;5.63;;
7231;SDS011;3657;49.630;11.018;2022-12-24T11:01:17;7.53;;;6.70;;
7231;SDS011;3657;49.630;11.018;2022-12-24T11:03:46;12.07;;;6.67;;
7231;SDS011;3657;49.630;11.018;2022-12-24T11:06:25;7.53;;;6.80;;
7231;SDS011;3657;49.630;11.018;2022-12-24T11:08:52;12.10;;;7.60;;
7231;SDS011;3657;49.630;11.018;2022-12-24T11:11:19;7.87;;;6.90;;
7231;SDS011;3657;49.630;11.018;2022-12-24T11:13:51;10.03;;;7.43;;
7231;SDS011;3657;49.630;11.018;2022-12-24T11:16:20;12.57;;;7.80;;
7231;SDS011;3657;49.630;11.018;2022-12-24T11:18:53;8.53;;;7.77;;
7231;SDS011;3657;49.630;11.018;2022-12-24T11:21:22;11.13;;;7.70;;
7231;SDS011;3657;49.630;11.018;2022-12-24T11:23:52;9.53;;;8.17;;
7231;SDS011;3657;49.630;11.018;2022-12-24T11:26:21;7.97;;;6.93;;
7231;SDS011;3657;49.630;11.018;2022-12-24T11:29:04;14.40;;;8.30;;
7231;SDS011;3657;49.630;11.018;2022-12-24T11:31:37;9.47;;;7.97;;
7231;SDS011;3657;49.630;11.018;2022-12-24T11:34:18;11.20;;;7.33;;
7231;SDS011;3657;49.630;11.018;2022-12-24T11:36:48;11.03;;;7.80;;
7231;SDS011;3657;49.630;11.018;2022-12-24T11:39:17;11.67;;;7.43;;
7231;SDS011;3657;49.630;11.018;2022-12-24T11:41:45;7.90;;;6.33;;
7231;SDS011;3657;49.630;11.018;2022-12-24T11:44:12;8.87;;;7.23;;
7231;SDS011;3657;49.630;11.018;2022-12-24T11:46:40;10.20;;;7.57;;
7231;SDS011;3657;49.630;11.018;2022-12-24T11:49:22;8.23;;;7.47;;
7231;SDS011;3657;49.630;11.018;2022-12-24T11:52:08;10.63;;;9.20;;
7231;SDS011;3657;49.630;11.018;2022-12-24T11:55:01;14.00;;;7.43;;
7231;SDS011;3657;49.630;11.018;2022-12-24T11:57:36;11.73;;;7.33;;
7231;SDS011;3657;49.630;11.018;2022-12-24T12:00:12;11.63;;;6.93;;
7231;SDS011;3657;49.630;11.018;2022-12-24T12:02:40;10.23;;;7.80;;
7231;SDS011;3657;49.630;11.018;2022-12-24T12:05:10;8.33;;;7.53;;
7231;SDS011;3657;49.630;11.018;2022-12-24T12:07:42;12.97;;;9.67;;
7231;SDS011;3657;49.630;11.018;2022-12-24T12:10:14;13.07;;;11.20;;
7231;SDS011;3657;49.630;11.018;2022-12-24T12:12:44;12.13;;;9.47;;
7231;SDS011;3657;49.630;11.018;2022-12-24T12:15:15;14.97;;;9.30;;
7231;SDS011;3657;49.630;11.018;2022-12-24T12:17:46;8.47;;;7.43;;
7231;SDS011;3657;49.630;11.018;2022-12-24T12:20:20;11.53;;;8.13;;
7231;SDS011;3657;49.630;11.018;2022-12-24T12:22:52;8.37;;;7.57;;
7231;SDS011;3657;49.630;11.018;2022-12-24T12:25:25;11.87;;;7.87;;
7231;SDS011;3657;49.630;11.018;2022-12-24T12:27:57;12.07;;;8.50;;
7231;SDS011;3657;49.630;11.018;2022-12-24T12:30:27;10.57;;;8.43;;
7231;SDS011;3657;49.630;11.018;2022-12-24T12:32:56;12.37;;;8.43;;
7231;SDS011;3657;49.630;11.018;2022-12-24T12:35:28;9.00;;;7.37;;
7231;SDS011;3657;49.630;11.018;2022-12-24T12:37:59;11.53;;;7.73;;
7231;SDS011;3657;49.630;11.018;2022-12-24T12:43:30;9.90;;;8.10;;
7231;SDS011;3657;49.630;11.018;2022-12-24T12:46:06;14.20;;;7.80;;
7231;SDS011;3657;49.630;11.018;2022-12-24T12:48:42;8.97;;;7.20;;
7231;SDS011;3657;49.630;11.018;2022-12-24T12:51:24;14.67;;;7.57;;
7231;SDS011;3657;49.630;11.018;2022-12-24T12:57:06;8.17;;;7.43;;
7231;SDS011;3657;49.630;11.018;2022-12-24T12:59:37;7.53;;;6.80;;
7231;SDS011;3657;49.630;11.018;2022-12-24T13:02:12;17.40;;;8.03;;
7231;SDS011;3657;49.630;11.018;2022-12-24T13:05:05;9.57;;;8.57;;
7231;SDS011;3657;49.630;11.018;2022-12-24T13:07:56;10.30;;;7.27;;
7231;SDS011;3657;49.630;11.018;2022-12-24T13:10:52;12.87;;;8.50;;
7231;SDS011;3657;49.630;11.018;2022-12-24T13:13:38;9.07;;;7.83;;
7231;SDS011;3657;49.630;11.018;2022-12-24T13:16:26;7.90;;;7.27;;
7231;SDS011;3657;49.630;11.018;2022-12-24T13:19:11;11.03;;;8.17;;
7231;SDS011;3657;49.630;11.018;2022-12-24T13:21:48;10.93;;;8.50;;
7231;SDS011;3657;49.630;11.018;2022-12-24T13:24:18;16.13;;;7.67;;
7231;SDS011;3657;49.630;11.018;2022-12-24T13:26:58;10.33;;;8.17;;
7231;SDS011;3657;49.630;11.018;2022-12-24T13:29:30;9.17;;;8.07;;
7231;SDS011;3657;49.630;11.018;2022-12-24T13:35:24;14.10;;;8.53;;
7231;SDS011;3657;49.630;11.018;2022-12-24T13:37:53;7.87;;;7.17;;
7231;SDS011;3657;49.630;11.018;2022-12-24T13:44:27;9.30;;;7.93;;
7231;SDS011;3657;49.630;11.018;2022-12-24T13:47:01;12.07;;;8.37;;
7231;SDS011;3657;49.630;11.018;2022-12-24T13:49:40;14.03;;;7.80;;
7231;SDS011;3657;49.630;11.018;2022-12-24T13:52:16;9.00;;;7.30;;
7231;SDS011;3657;49.630;11.018;2022-12-24T13:54:47;10.87;;;7.27;;
7231;SDS011;3657;49.630;11.018;2022-12-24T13:57:28;10.83;;;7.73;;
7231;SDS011;3657;49.630;11.018;2022-12-24T13:59:59;11.13;;;7.47;;
7231;SDS011;3657;49.630;11.018;2022-12-24T14:02:30;10.57;;;7.70;;
7231;SDS011;3657;49.630;11.018;2022-12-24T14:05:01;8.30;;;7.40;;
7231;SDS011;3657;49.630;11.018;2022-12-24T14:07:32;7.93;;;7.00;;
7231;SDS011;3657;49.630;11.018;2022-12-24T14:10:00;14.83;;;7.47;;
7231;SDS011;3657;49.630;11.018;2022-12-24T14:12:31;10.53;;;7.33;;
7231;SDS011;3657;49.630;11.018;2022-12-24T14:18:33;10.60;;;8.13;;
7231;SDS011;3657;49.630;11.018;2022-12-24T14:21:03;10.10;;;7.00;;
7231;SDS011;3657;49.630;11.018;2022-12-24T14:23:34;12.20;;;7.63;;
7231;SDS011;3657;49.630;11.018;2022-12-24T14:26:10;11.20;;;8.20;;
7231;SDS011;3657;49.630;11.018;2022-12-24T14:28:41;8.80;;;7.93;;
7231;SDS011;3657;49.630;11.018;2022-12-24T14:31:12;7.80;;;7.00;;
7231;SDS011;3657;49.630;11.018;2022-12-24T14:33:42;11.93;;;8.33;;
7231;SDS011;3657;49.630;11.018;2022-12-24T14:36:09;9.37;;;7.90;;
7231;SDS011;3657;49.630;11.018;2022-12-24T14:38:38;12.80;;;9.07;;
7231;SDS011;3657;49.630;11.018;2022-12-24T14:41:07;8.73;;;8.03;;
7231;SDS011;3657;49.630;11.018;2022-12-24T14:43:45;9.90;;;8.63;;
7231;SDS011;3657;49.630;11.018;2022-12-24T14:46:20;10.20;;;7.57;;
7231;SDS011;3657;49.630;11.018;2022-12-24T14:48:52;10.33;;;8.83;;
7231;SDS011;3657;49.630;11.018;2022-12-24T14:51:24;10.97;;;9.17;;
7231;SDS011;3657;49.630;11.018;2022-12-24T14:54:04;12.47;;;10.03;;
7231;SDS011;3657;49.630;11.018;2022-12-24T14:56:42;10.57;;;8.43;;
7231;SDS011;3657;49.630;11.018;2022-12-24T14:59:15;9.33;;;8.43;;
7231;SDS011;3657;49.630;11.018;2022-12-24T15:01:43;8.83;;;7.97;;
7231;SDS011;3657;49.630;11.018;2022-12-24T15:04:15;14.60;;;9.37;;
7231;SDS011;3657;49.630;11.018;2022-12-24T15:06:43;9.80;;;7.27;;
7231;SDS011;3657;49.630;11.018;2022-12-24T15:09:13;8.93;;;8.10;;
7231;SDS011;3657;49.630;11.018;2022-12-24T15:11:44;8.13;;;7.63;;
7231;SDS011;3657;49.630;11.018;2022-12-24T15:14:11;8.87;;;8.07;;
7231;SDS011;3657;49.630;11.018;2022-12-24T15:16:39;8.40;;;7.73;;
7231;SDS011;3657;49.630;11.018;2022-12-24T15:19:06;8.90;;;8.03;;
7231;SDS011;3657;49.630;11.018;2022-12-24T15:21:42;8.10;;;7.60;;
7231;SDS011;3657;49.630;11.018;2022-12-24T15:24:22;9.80;;;8.70;;
7231;SDS011;3657;49.630;11.018;2022-12-24T15:26:50;17.30;;;15.33;;
7231;SDS011;3657;49.630;11.018;2022-12-24T15:29:20;23.00;;;18.33;;
7231;SDS011;3657;49.630;11.018;2022-12-24T15:31:51;12.17;;;11.23;;
7231;SDS011;3657;49.630;11.018;2022-12-24T15:34:24;11.77;;;10.70;;
7231;SDS011;3657;49.630;11.018;2022-12-24T15:36:58;11.33;;;10.23;;